sensor_id;sensor_type;location;lat;lon;timestamp;temperature;humidity
20158;DHT22;10239;56.820;24.416;2023-07-31T00:00:50;16.20;99.90
20158;DHT22;10239;56.820;24.416;2023-07-31T00:03:17;16.20;99.90
20158;DHT22;10239;56.820;24.416;2023-07-31T00:05:45;16.10;99.90
20158;DHT22;10239;56.820;24.416;2023-07-31T00:08:12;15.90;99.90
20158;DHT22;10239;56.820;24.416;2023-07-31T00:10:40;15.90;99.90
20158;DHT22;10239;56.820;24.416;2023-07-31T00:13:07;15.80;99.90
20158;DHT22;10239;56.820;24.416;2023-07-31T00:15:35;15.90;99.90
20158;DHT22;10239;56.820;24.416;2023-07-31T00:18:02;15.90;99.90
20158;DHT22;10239;56.820;24.416;2023-07-31T00:20:30;16.00;99.90
20158;DHT22;10239;56.820;24.416;2023-07-31T00:22:58;16.00;99.90
20158;DHT22;10239;56.820;24.416;2023-07-31T00:25:25;16.00;99.90
20158;DHT22;10239;56.820;24.416;2023-07-31T00:27:53;16.00;99.90
20158;DHT22;10239;56.820;24.416;2023-07-31T00:30:20;16.10;99.90
20158;DHT22;10239;56.820;24.416;2023-07-31T00:32:49;16.20;99.90
20158;DHT22;10239;56.820;24.416;2023-07-31T00:35:17;16.20;99.90
20158;DHT22;10239;56.820;24.416;2023-07-31T00:37:45;16.30;99.90
20158;DHT22;10239;56.820;24.416;2023-07-31T00:40:12;16.30;99.90
20158;DHT22;10239;56.820;24.416;2023-07-31T00:42:41;16.40;99.90
20158;DHT22;10239;56.820;24.416;2023-07-31T00:45:09;16.50;99.90
20158;DHT22;10239;56.820;24.416;2023-07-31T00:47:36;16.50;99.90
20158;DHT22;10239;56.820;24.416;2023-07-31T00:50:05;16.60;99.90
20158;DHT22;10239;56.820;24.416;2023-07-31T00:52:33;16.50;99.90
20158;DHT22;10239;56.820;24.416;2023-07-31T00:55:01;16.50;99.90
20158;DHT22;10239;56.820;24.416;2023-07-31T00:57:31;16.50;99.90
20158;DHT22;10239;56.820;24.416;2023-07-31T01:00:00;16.60;99.90
20158;DHT22;10239;56.820;24.416;2023-07-31T01:02:28;16.70;99.90
20158;DHT22;10239;56.820;24.416;2023-07-31T01:04:56;16.50;99.90
20158;DHT22;10239;56.820;24.416;2023-07-31T01:12:42;16.50;99.90
20158;DHT22;10239;56.820;24.416;2023-07-31T01:15:10;16.40;99.90
20158;DHT22;10239;56.820;24.416;2023-07-31T01:17:38;16.40;99.90
20158;DHT22;10239;56.820;24.416;2023-07-31T01:20:21;16.30;99.90
20158;DHT22;10239;56.820;24.416;2023-07-31T01:31:37;15.90;99.90
20158;DHT22;10239;56.820;24.416;2023-07-31T01:34:06;15.90;99.90
20158;DHT22;10239;56.820;24.416;2023-07-31T01:36:36;15.80;99.90
20158;DHT22;10239;56.820;24.416;2023-07-31T01:39:04;15.70;99.90
20158;DHT22;10239;56.820;24.416;2023-07-31T01:41:32;15.60;99.90
20158;DHT22;10239;56.820;24.416;2023-07-31T01:44:00;15.70;99.90
20158;DHT22;10239;56.820;24.416;2023-07-31T01:46:27;15.80;99.90
20158;DHT22;10239;56.820;24.416;2023-07-31T01:48:56;15.90;99.90
20158;DHT22;10239;56.820;24.416;2023-07-31T01:51:23;15.80;99.90
20158;DHT22;10239;56.820;24.416;2023-07-31T01:53:51;15.80;99.90
20158;DHT22;10239;56.820;24.416;2023-07-31T01:56:19;15.80;99.90
20158;DHT22;10239;56.820;24.416;2023-07-31T01:58:47;15.80;99.90
20158;DHT22;10239;56.820;24.416;2023-07-31T02:01:14;15.70;99.90
20158;DHT22;10239;56.820;24.416;2023-07-31T02:03:42;15.90;99.90
20158;DHT22;10239;56.820;24.416;2023-07-31T02:06:09;15.90;99.90
20158;DHT22;10239;56.820;24.416;2023-07-31T02:08:37;15.80;99.90
20158;DHT22;10239;56.820;24.416;2023-07-31T02:11:05;15.80;99.90
20158;DHT22;10239;56.820;24.416;2023-07-31T02:13:32;15.80;99.90
20158;DHT22;10239;56.820;24.416;2023-07-31T02:16:02;15.80;99.90
20158;DHT22;10239;56.820;24.416;2023-07-31T02:18:29;15.80;99.90
20158;DHT22;10239;56.820;24.416;2023-07-31T02:20:57;15.80;99.90
20158;DHT22;10239;56.820;24.416;2023-07-31T02:23:25;15.80;99.90
20158;DHT22;10239;56.820;24.416;2023-07-31T02:25:53;15.80;99.90
20158;DHT22;10239;56.820;24.416;2023-07-31T02:28:20;15.80;99.90
20158;DHT22;10239;56.820;24.416;2023-07-31T02:30:50;15.80;99.90
20158;DHT22;10239;56.820;24.416;2023-07-31T02:33:19;15.80;99.90
20158;DHT22;10239;56.820;24.416;2023-07-31T02:35:46;15.80;99.90
20158;DHT22;10239;56.820;24.416;2023-07-31T02:38:14;15.80;99.90
20158;DHT22;10239;56.820;24.416;2023-07-31T02:40:41;15.80;99.90
20158;DHT22;10239;56.820;24.416;2023-07-31T02:43:09;15.60;99.90
20158;DHT22;10239;56.820;24.416;2023-07-31T02:45:37;15.70;99.90
20158;DHT22;10239;56.820;24.416;2023-07-31T02:48:05;15.70;99.90
20158;DHT22;10239;56.820;24.416;2023-07-31T02:50:33;15.80;99.90
20158;DHT22;10239;56.820;24.416;2023-07-31T02:53:01;15.70;99.90
20158;DHT22;10239;56.820;24.416;2023-07-31T02:55:28;15.70;99.90
20158;DHT22;10239;56.820;24.416;2023-07-31T02:57:57;15.90;99.90
20158;DHT22;10239;56.820;24.416;2023-07-31T03:00:25;16.10;99.90
20158;DHT22;10239;56.820;24.416;2023-07-31T03:02:53;16.00;99.90
20158;DHT22;10239;56.820;24.416;2023-07-31T03:05:21;16.10;99.90
20158;DHT22;10239;56.820;24.416;2023-07-31T03:07:49;16.20;99.90
20158;DHT22;10239;56.820;24.416;2023-07-31T03:10:16;16.20;99.90
20158;DHT22;10239;56.820;24.416;2023-07-31T03:12:47;16.20;99.90
20158;DHT22;10239;56.820;24.416;2023-07-31T03:15:15;16.30;99.90
20158;DHT22;10239;56.820;24.416;2023-07-31T03:17:43;16.20;99.90
20158;DHT22;10239;56.820;24.416;2023-07-31T03:20:11;16.30;99.90
20158;DHT22;10239;56.820;24.416;2023-07-31T03:22:38;16.30;99.90
20158;DHT22;10239;56.820;24.416;2023-07-31T03:25:06;16.30;99.90
20158;DHT22;10239;56.820;24.416;2023-07-31T03:27:34;16.40;99.90
20158;DHT22;10239;56.820;24.416;2023-07-31T03:30:03;16.40;99.90
20158;DHT22;10239;56.820;24.416;2023-07-31T03:32:31;16.30;99.90
20158;DHT22;10239;56.820;24.416;2023-07-31T03:34:59;16.40;99.90
20158;DHT22;10239;56.820;24.416;2023-07-31T03:37:29;16.50;99.90
20158;DHT22;10239;56.820;24.416;2023-07-31T03:39:57;16.40;99.90
20158;DHT22;10239;56.820;24.416;2023-07-31T03:42:25;16.20;99.90
20158;DHT22;10239;56.820;24.416;2023-07-31T03:44:52;16.20;99.90
20158;DHT22;10239;56.820;24.416;2023-07-31T03:47:20;16.30;99.90
20158;DHT22;10239;56.820;24.416;2023-07-31T03:49:47;16.40;99.90
20158;DHT22;10239;56.820;24.416;2023-07-31T03:52:15;16.60;99.90
20158;DHT22;10239;56.820;24.416;2023-07-31T03:54:43;16.50;99.90
20158;DHT22;10239;56.820;24.416;2023-07-31T03:57:11;16.50;99.90
20158;DHT22;10239;56.820;24.416;2023-07-31T03:59:39;16.80;99.90
20158;DHT22;10239;56.820;24.416;2023-07-31T04:02:06;17.00;99.90
20158;DHT22;10239;56.820;24.416;2023-07-31T04:04:33;16.80;99.90
20158;DHT22;10239;56.820;24.416;2023-07-31T04:07:02;17.00;99.90
20158;DHT22;10239;56.820;24.416;2023-07-31T04:09:30;16.90;99.90
20158;DHT22;10239;56.820;24.416;2023-07-31T04:11:58;17.10;99.90
20158;DHT22;10239;56.820;24.416;2023-07-31T04:14:26;17.20;99.90
20158;DHT22;10239;56.820;24.416;2023-07-31T04:16:53;17.50;99.90
20158;DHT22;10239;56.820;24.416;2023-07-31T04:19:21;17.60;99.90
20158;DHT22;10239;56.820;24.416;2023-07-31T04:21:48;17.70;99.90
20158;DHT22;10239;56.820;24.416;2023-07-31T04:24:15;17.90;99.90
20158;DHT22;10239;56.820;24.416;2023-07-31T04:26:52;17.70;99.90
20158;DHT22;10239;56.820;24.416;2023-07-31T04:29:20;17.70;99.90
20158;DHT22;10239;56.820;24.416;2023-07-31T04:31:48;17.50;99.90
20158;DHT22;10239;56.820;24.416;2023-07-31T04:34:15;17.80;99.90
20158;DHT22;10239;56.820;24.416;2023-07-31T04:36:46;17.90;99.90
20158;DHT22;10239;56.820;24.416;2023-07-31T04:39:13;17.90;99.90
20158;DHT22;10239;56.820;24.416;2023-07-31T04:41:43;17.80;99.90
20158;DHT22;10239;56.820;24.416;2023-07-31T04:44:11;17.80;99.90
20158;DHT22;10239;56.820;24.416;2023-07-31T04:46:40;17.50;99.90
20158;DHT22;10239;56.820;24.416;2023-07-31T04:49:08;17.70;99.90
20158;DHT22;10239;56.820;24.416;2023-07-31T04:51:36;17.70;99.90
20158;DHT22;10239;56.820;24.416;2023-07-31T04:54:03;17.40;99.90
20158;DHT22;10239;56.820;24.416;2023-07-31T04:56:31;17.70;99.90
20158;DHT22;10239;56.820;24.416;2023-07-31T04:58:59;18.00;99.90
20158;DHT22;10239;56.820;24.416;2023-07-31T05:01:29;18.10;99.90
20158;DHT22;10239;56.820;24.416;2023-07-31T05:03:56;18.20;99.90
20158;DHT22;10239;56.820;24.416;2023-07-31T05:06:24;18.60;99.90
20158;DHT22;10239;56.820;24.416;2023-07-31T05:08:52;18.20;99.90
20158;DHT22;10239;56.820;24.416;2023-07-31T05:11:20;18.60;99.90
20158;DHT22;10239;56.820;24.416;2023-07-31T05:13:53;18.80;99.90
20158;DHT22;10239;56.820;24.416;2023-07-31T05:16:20;18.90;99.90
20158;DHT22;10239;56.820;24.416;2023-07-31T05:18:48;18.80;99.90
20158;DHT22;10239;56.820;24.416;2023-07-31T05:21:18;19.00;99.90
20158;DHT22;10239;56.820;24.416;2023-07-31T05:23:46;18.90;99.90
20158;DHT22;10239;56.820;24.416;2023-07-31T05:26:15;19.10;99.90
20158;DHT22;10239;56.820;24.416;2023-07-31T05:28:45;19.30;99.90
20158;DHT22;10239;56.820;24.416;2023-07-31T05:31:13;19.30;99.90
20158;DHT22;10239;56.820;24.416;2023-07-31T05:33:40;19.30;99.90
20158;DHT22;10239;56.820;24.416;2023-07-31T05:36:07;19.20;99.90
20158;DHT22;10239;56.820;24.416;2023-07-31T05:38:35;19.20;99.90
20158;DHT22;10239;56.820;24.416;2023-07-31T05:41:03;19.00;99.90
20158;DHT22;10239;56.820;24.416;2023-07-31T05:43:31;19.10;99.90
20158;DHT22;10239;56.820;24.416;2023-07-31T05:45:58;19.30;99.90
20158;DHT22;10239;56.820;24.416;2023-07-31T05:48:26;19.40;99.90
20158;DHT22;10239;56.820;24.416;2023-07-31T05:50:54;19.10;99.90
20158;DHT22;10239;56.820;24.416;2023-07-31T05:53:21;19.20;99.90
20158;DHT22;10239;56.820;24.416;2023-07-31T05:55:49;19.60;99.90
20158;DHT22;10239;56.820;24.416;2023-07-31T05:58:17;19.70;99.90
20158;DHT22;10239;56.820;24.416;2023-07-31T06:00:44;19.40;99.90
20158;DHT22;10239;56.820;24.416;2023-07-31T06:03:12;19.20;99.90
20158;DHT22;10239;56.820;24.416;2023-07-31T06:05:40;19.30;99.90
20158;DHT22;10239;56.820;24.416;2023-07-31T06:08:07;19.30;99.90
20158;DHT22;10239;56.820;24.416;2023-07-31T06:10:35;19.70;99.90
20158;DHT22;10239;56.820;24.416;2023-07-31T06:13:02;19.90;99.90
20158;DHT22;10239;56.820;24.416;2023-07-31T06:15:30;19.60;99.90
20158;DHT22;10239;56.820;24.416;2023-07-31T06:17:58;19.90;99.90
20158;DHT22;10239;56.820;24.416;2023-07-31T06:20:29;20.30;99.90
20158;DHT22;10239;56.820;24.416;2023-07-31T06:22:57;20.10;99.90
20158;DHT22;10239;56.820;24.416;2023-07-31T06:25:24;20.10;99.90
20158;DHT22;10239;56.820;24.416;2023-07-31T06:27:52;19.80;99.90
20158;DHT22;10239;56.820;24.416;2023-07-31T06:30:19;19.70;99.90
20158;DHT22;10239;56.820;24.416;2023-07-31T06:32:47;19.70;99.90
20158;DHT22;10239;56.820;24.416;2023-07-31T06:35:15;19.60;99.90
20158;DHT22;10239;56.820;24.416;2023-07-31T06:37:42;19.50;99.90
20158;DHT22;10239;56.820;24.416;2023-07-31T06:40:11;20.20;99.90
20158;DHT22;10239;56.820;24.416;2023-07-31T06:42:39;20.60;99.90
20158;DHT22;10239;56.820;24.416;2023-07-31T06:45:07;21.90;99.90
20158;DHT22;10239;56.820;24.416;2023-07-31T06:47:35;22.80;99.90
20158;DHT22;10239;56.820;24.416;2023-07-31T06:50:03;23.00;99.90
20158;DHT22;10239;56.820;24.416;2023-07-31T06:52:31;24.10;99.90
20158;DHT22;10239;56.820;24.416;2023-07-31T06:55:03;23.60;99.90
20158;DHT22;10239;56.820;24.416;2023-07-31T06:57:31;23.90;99.90
20158;DHT22;10239;56.820;24.416;2023-07-31T06:59:59;24.30;99.90
20158;DHT22;10239;56.820;24.416;2023-07-31T07:02:26;23.90;99.90
20158;DHT22;10239;56.820;24.416;2023-07-31T07:04:54;24.80;99.90
20158;DHT22;10239;56.820;24.416;2023-07-31T07:07:21;24.90;99.90
20158;DHT22;10239;56.820;24.416;2023-07-31T07:09:49;24.70;99.90
20158;DHT22;10239;56.820;24.416;2023-07-31T07:12:16;23.30;99.90
20158;DHT22;10239;56.820;24.416;2023-07-31T07:14:44;22.60;99.90
20158;DHT22;10239;56.820;24.416;2023-07-31T07:17:14;22.70;99.90
20158;DHT22;10239;56.820;24.416;2023-07-31T07:19:42;23.70;99.90
20158;DHT22;10239;56.820;24.416;2023-07-31T07:22:10;24.70;99.90
20158;DHT22;10239;56.820;24.416;2023-07-31T07:24:37;24.70;99.90
20158;DHT22;10239;56.820;24.416;2023-07-31T07:27:05;25.40;99.90
20158;DHT22;10239;56.820;24.416;2023-07-31T07:29:37;25.80;99.90
20158;DHT22;10239;56.820;24.416;2023-07-31T07:32:05;26.10;99.90
20158;DHT22;10239;56.820;24.416;2023-07-31T07:34:34;26.20;99.90
20158;DHT22;10239;56.820;24.416;2023-07-31T07:37:02;25.40;99.90
20158;DHT22;10239;56.820;24.416;2023-07-31T07:39:29;24.80;99.90
20158;DHT22;10239;56.820;24.416;2023-07-31T07:41:57;24.70;99.90
20158;DHT22;10239;56.820;24.416;2023-07-31T07:44:24;24.80;99.90
20158;DHT22;10239;56.820;24.416;2023-07-31T07:46:52;25.80;99.90
20158;DHT22;10239;56.820;24.416;2023-07-31T07:49:19;25.50;99.90
20158;DHT22;10239;56.820;24.416;2023-07-31T07:51:49;25.80;99.90
20158;DHT22;10239;56.820;24.416;2023-07-31T07:54:17;25.80;99.90
20158;DHT22;10239;56.820;24.416;2023-07-31T07:56:44;25.80;99.90
20158;DHT22;10239;56.820;24.416;2023-07-31T07:59:12;25.80;99.90
20158;DHT22;10239;56.820;24.416;2023-07-31T08:01:39;25.60;99.90
20158;DHT22;10239;56.820;24.416;2023-07-31T08:04:07;24.50;99.90
20158;DHT22;10239;56.820;24.416;2023-07-31T08:06:34;24.90;99.90
20158;DHT22;10239;56.820;24.416;2023-07-31T08:09:02;27.00;99.90
20158;DHT22;10239;56.820;24.416;2023-07-31T08:11:33;27.00;99.90
20158;DHT22;10239;56.820;24.416;2023-07-31T08:14:01;27.80;99.90
20158;DHT22;10239;56.820;24.416;2023-07-31T08:16:28;27.70;99.90
20158;DHT22;10239;56.820;24.416;2023-07-31T08:18:56;27.20;99.90
20158;DHT22;10239;56.820;24.416;2023-07-31T08:21:24;26.90;99.90
20158;DHT22;10239;56.820;24.416;2023-07-31T08:23:54;26.50;99.90
20158;DHT22;10239;56.820;24.416;2023-07-31T08:26:45;26.60;99.90
20158;DHT22;10239;56.820;24.416;2023-07-31T08:29:35;26.90;99.90
20158;DHT22;10239;56.820;24.416;2023-07-31T08:32:03;27.20;99.90
20158;DHT22;10239;56.820;24.416;2023-07-31T08:34:31;27.20;99.90
20158;DHT22;10239;56.820;24.416;2023-07-31T08:36:58;27.10;99.90
20158;DHT22;10239;56.820;24.416;2023-07-31T08:39:25;26.90;99.90
20158;DHT22;10239;56.820;24.416;2023-07-31T08:41:58;26.80;99.90
20158;DHT22;10239;56.820;24.416;2023-07-31T08:44:27;26.40;99.90
20158;DHT22;10239;56.820;24.416;2023-07-31T08:46:55;26.00;99.90
20158;DHT22;10239;56.820;24.416;2023-07-31T08:49:23;26.60;99.90
20158;DHT22;10239;56.820;24.416;2023-07-31T08:51:52;26.80;99.90
20158;DHT22;10239;56.820;24.416;2023-07-31T08:54:21;26.70;99.90
20158;DHT22;10239;56.820;24.416;2023-07-31T08:56:49;26.00;99.90
20158;DHT22;10239;56.820;24.416;2023-07-31T08:59:18;25.70;99.90
20158;DHT22;10239;56.820;24.416;2023-07-31T09:01:50;24.90;99.90
20158;DHT22;10239;56.820;24.416;2023-07-31T09:04:22;24.70;99.90
20158;DHT22;10239;56.820;24.416;2023-07-31T09:06:51;24.40;99.90
20158;DHT22;10239;56.820;24.416;2023-07-31T09:09:23;24.20;99.90
20158;DHT22;10239;56.820;24.416;2023-07-31T09:11:50;23.80;99.90
20158;DHT22;10239;56.820;24.416;2023-07-31T09:14:19;23.60;99.90
20158;DHT22;10239;56.820;24.416;2023-07-31T09:16:59;23.30;99.90
20158;DHT22;10239;56.820;24.416;2023-07-31T09:19:33;23.20;99.90
20158;DHT22;10239;56.820;24.416;2023-07-31T09:22:04;22.70;99.90
20158;DHT22;10239;56.820;24.416;2023-07-31T09:24:33;22.30;99.90
20158;DHT22;10239;56.820;24.416;2023-07-31T09:27:01;22.20;99.90
20158;DHT22;10239;56.820;24.416;2023-07-31T09:29:29;22.00;99.90
20158;DHT22;10239;56.820;24.416;2023-07-31T09:31:57;21.70;99.90
20158;DHT22;10239;56.820;24.416;2023-07-31T09:34:38;21.30;99.90
20158;DHT22;10239;56.820;24.416;2023-07-31T09:37:06;21.00;99.90
20158;DHT22;10239;56.820;24.416;2023-07-31T09:39:48;20.70;99.90
20158;DHT22;10239;56.820;24.416;2023-07-31T09:42:26;20.30;99.90
20158;DHT22;10239;56.820;24.416;2023-07-31T09:44:54;20.30;99.90
20158;DHT22;10239;56.820;24.416;2023-07-31T09:47:25;20.50;99.90
20158;DHT22;10239;56.820;24.416;2023-07-31T09:49:53;20.30;99.90
20158;DHT22;10239;56.820;24.416;2023-07-31T09:52:21;20.40;99.90
20158;DHT22;10239;56.820;24.416;2023-07-31T09:54:49;20.40;99.90
20158;DHT22;10239;56.820;24.416;2023-07-31T09:57:17;20.50;99.90
20158;DHT22;10239;56.820;24.416;2023-07-31T09:59:47;20.40;99.90
20158;DHT22;10239;56.820;24.416;2023-07-31T10:02:20;20.20;99.90
20158;DHT22;10239;56.820;24.416;2023-07-31T10:04:56;20.60;99.90
20158;DHT22;10239;56.820;24.416;2023-07-31T10:07:25;20.40;99.90
20158;DHT22;10239;56.820;24.416;2023-07-31T10:09:55;20.30;99.90
20158;DHT22;10239;56.820;24.416;2023-07-31T10:12:26;20.60;99.90
20158;DHT22;10239;56.820;24.416;2023-07-31T10:14:57;20.60;99.90
20158;DHT22;10239;56.820;24.416;2023-07-31T10:17:26;20.80;99.90
20158;DHT22;10239;56.820;24.416;2023-07-31T10:19:59;21.30;99.90
20158;DHT22;10239;56.820;24.416;2023-07-31T10:22:29;21.70;99.90
20158;DHT22;10239;56.820;24.416;2023-07-31T10:24:59;21.80;99.90
20158;DHT22;10239;56.820;24.416;2023-07-31T10:27:27;22.60;99.90
20158;DHT22;10239;56.820;24.416;2023-07-31T10:29:58;23.80;99.90
20158;DHT22;10239;56.820;24.416;2023-07-31T10:32:27;24.00;99.90
20158;DHT22;10239;56.820;24.416;2023-07-31T10:34:56;24.00;99.90
20158;DHT22;10239;56.820;24.416;2023-07-31T10:40:00;24.30;99.90
20158;DHT22;10239;56.820;24.416;2023-07-31T10:45:12;24.90;99.90
20158;DHT22;10239;56.820;24.416;2023-07-31T10:47:43;25.70;99.90
20158;DHT22;10239;56.820;24.416;2023-07-31T10:50:18;26.20;99.90
20158;DHT22;10239;56.820;24.416;2023-07-31T10:52:51;26.50;99.90
20158;DHT22;10239;56.820;24.416;2023-07-31T10:57:55;27.10;99.90
20158;DHT22;10239;56.820;24.416;2023-07-31T11:00:28;27.10;99.90
20158;DHT22;10239;56.820;24.416;2023-07-31T11:03:03;27.60;99.90
20158;DHT22;10239;56.820;24.416;2023-07-31T11:08:23;26.60;99.90
20158;DHT22;10239;56.820;24.416;2023-07-31T11:11:08;26.60;99.90
20158;DHT22;10239;56.820;24.416;2023-07-31T11:13:47;25.70;99.90
20158;DHT22;10239;56.820;24.416;2023-07-31T11:16:19;25.70;99.90
20158;DHT22;10239;56.820;24.416;2023-07-31T11:18:48;26.70;99.90
20158;DHT22;10239;56.820;24.416;2023-07-31T11:21:18;27.70;99.90
20158;DHT22;10239;56.820;24.416;2023-07-31T11:23:51;28.20;99.90
20158;DHT22;10239;56.820;24.416;2023-07-31T11:26:20;28.60;99.90
20158;DHT22;10239;56.820;24.416;2023-07-31T11:28:49;28.60;99.90
20158;DHT22;10239;56.820;24.416;2023-07-31T11:31:17;27.30;99.90
20158;DHT22;10239;56.820;24.416;2023-07-31T11:33:46;26.50;99.90
20158;DHT22;10239;56.820;24.416;2023-07-31T11:36:19;26.00;99.90
20158;DHT22;10239;56.820;24.416;2023-07-31T11:38:47;25.60;99.90
20158;DHT22;10239;56.820;24.416;2023-07-31T11:41:16;25.50;99.90
20158;DHT22;10239;56.820;24.416;2023-07-31T11:43:46;25.40;99.90
20158;DHT22;10239;56.820;24.416;2023-07-31T11:46:15;25.80;99.90
20158;DHT22;10239;56.820;24.416;2023-07-31T11:48:43;25.40;99.90
20158;DHT22;10239;56.820;24.416;2023-07-31T11:51:13;25.30;99.90
20158;DHT22;10239;56.820;24.416;2023-07-31T11:53:51;24.90;99.90
20158;DHT22;10239;56.820;24.416;2023-07-31T11:56:21;25.20;99.90
20158;DHT22;10239;56.820;24.416;2023-07-31T11:58:55;25.30;99.90
20158;DHT22;10239;56.820;24.416;2023-07-31T12:01:26;25.10;99.90
20158;DHT22;10239;56.820;24.416;2023-07-31T12:03:56;25.50;99.90
20158;DHT22;10239;56.820;24.416;2023-07-31T12:06:38;25.80;99.90
20158;DHT22;10239;56.820;24.416;2023-07-31T12:09:06;26.20;99.90
20158;DHT22;10239;56.820;24.416;2023-07-31T12:11:46;26.00;99.90
20158;DHT22;10239;56.820;24.416;2023-07-31T12:14:30;25.50;99.90
20158;DHT22;10239;56.820;24.416;2023-07-31T12:17:04;25.70;99.90
20158;DHT22;10239;56.820;24.416;2023-07-31T12:19:34;25.90;99.90
20158;DHT22;10239;56.820;24.416;2023-07-31T12:22:02;24.90;99.90
20158;DHT22;10239;56.820;24.416;2023-07-31T12:24:40;25.40;99.90
20158;DHT22;10239;56.820;24.416;2023-07-31T12:27:12;25.40;99.90
20158;DHT22;10239;56.820;24.416;2023-07-31T12:29:42;25.20;99.90
20158;DHT22;10239;56.820;24.416;2023-07-31T12:32:22;25.30;99.90
20158;DHT22;10239;56.820;24.416;2023-07-31T12:34:52;25.70;99.90
20158;DHT22;10239;56.820;24.416;2023-07-31T12:37:23;25.90;99.90
20158;DHT22;10239;56.820;24.416;2023-07-31T12:39:51;25.90;99.90
20158;DHT22;10239;56.820;24.416;2023-07-31T12:42:18;26.20;99.90
20158;DHT22;10239;56.820;24.416;2023-07-31T12:44:46;26.50;99.90
20158;DHT22;10239;56.820;24.416;2023-07-31T12:47:13;26.80;99.90
20158;DHT22;10239;56.820;24.416;2023-07-31T12:49:42;26.40;99.90
20158;DHT22;10239;56.820;24.416;2023-07-31T12:52:09;26.60;99.90
20158;DHT22;10239;56.820;24.416;2023-07-31T12:54:36;26.70;99.90
20158;DHT22;10239;56.820;24.416;2023-07-31T12:57:04;26.70;99.90
20158;DHT22;10239;56.820;24.416;2023-07-31T12:59:31;26.70;99.90
20158;DHT22;10239;56.820;24.416;2023-07-31T13:01:59;26.50;99.90
20158;DHT22;10239;56.820;24.416;2023-07-31T13:04:26;26.50;99.90
20158;DHT22;10239;56.820;24.416;2023-07-31T13:06:53;26.40;99.90
20158;DHT22;10239;56.820;24.416;2023-07-31T13:09:21;26.50;99.90
20158;DHT22;10239;56.820;24.416;2023-07-31T13:11:48;26.90;99.90
20158;DHT22;10239;56.820;24.416;2023-07-31T13:14:15;27.00;99.90
20158;DHT22;10239;56.820;24.416;2023-07-31T13:16:44;26.90;99.90
20158;DHT22;10239;56.820;24.416;2023-07-31T13:19:11;27.10;99.90
20158;DHT22;10239;56.820;24.416;2023-07-31T13:21:38;26.90;99.90
20158;DHT22;10239;56.820;24.416;2023-07-31T13:24:07;26.80;99.90
20158;DHT22;10239;56.820;24.416;2023-07-31T13:26:34;27.00;99.90
20158;DHT22;10239;56.820;24.416;2023-07-31T13:29:03;27.00;99.90
20158;DHT22;10239;56.820;24.416;2023-07-31T13:31:30;27.00;99.90
20158;DHT22;10239;56.820;24.416;2023-07-31T13:33:57;26.80;99.90
20158;DHT22;10239;56.820;24.416;2023-07-31T13:36:25;26.60;99.90
20158;DHT22;10239;56.820;24.416;2023-07-31T13:38:52;26.60;99.90
20158;DHT22;10239;56.820;24.416;2023-07-31T13:41:19;26.70;99.90
20158;DHT22;10239;56.820;24.416;2023-07-31T13:43:47;26.60;99.90
20158;DHT22;10239;56.820;24.416;2023-07-31T13:46:14;26.40;99.90
20158;DHT22;10239;56.820;24.416;2023-07-31T13:48:42;26.60;99.90
20158;DHT22;10239;56.820;24.416;2023-07-31T13:51:09;26.70;99.90
20158;DHT22;10239;56.820;24.416;2023-07-31T13:53:37;26.90;99.90
20158;DHT22;10239;56.820;24.416;2023-07-31T13:56:04;27.10;99.90
20158;DHT22;10239;56.820;24.416;2023-07-31T13:58:33;27.00;99.90
20158;DHT22;10239;56.820;24.416;2023-07-31T14:01:00;27.20;99.90
20158;DHT22;10239;56.820;24.416;2023-07-31T14:03:27;27.10;99.90
20158;DHT22;10239;56.820;24.416;2023-07-31T14:05:55;27.10;99.90
20158;DHT22;10239;56.820;24.416;2023-07-31T14:08:22;27.20;99.90
20158;DHT22;10239;56.820;24.416;2023-07-31T14:10:50;27.10;99.90
20158;DHT22;10239;56.820;24.416;2023-07-31T14:13:17;27.00;99.90
20158;DHT22;10239;56.820;24.416;2023-07-31T14:15:45;26.70;99.90
20158;DHT22;10239;56.820;24.416;2023-07-31T14:18:12;26.50;99.90
20158;DHT22;10239;56.820;24.416;2023-07-31T14:20:40;26.40;99.90
20158;DHT22;10239;56.820;24.416;2023-07-31T14:23:08;26.30;99.90
20158;DHT22;10239;56.820;24.416;2023-07-31T14:25:35;26.30;99.90
20158;DHT22;10239;56.820;24.416;2023-07-31T14:28:02;26.50;99.90
20158;DHT22;10239;56.820;24.416;2023-07-31T14:30:30;26.60;99.90
20158;DHT22;10239;56.820;24.416;2023-07-31T14:32:57;26.30;99.90
20158;DHT22;10239;56.820;24.416;2023-07-31T14:35:26;26.00;99.90
20158;DHT22;10239;56.820;24.416;2023-07-31T14:37:54;25.80;99.90
20158;DHT22;10239;56.820;24.416;2023-07-31T14:40:22;25.60;99.90
20158;DHT22;10239;56.820;24.416;2023-07-31T14:42:50;25.40;99.90
20158;DHT22;10239;56.820;24.416;2023-07-31T14:45:17;25.50;99.90
20158;DHT22;10239;56.820;24.416;2023-07-31T14:47:45;25.40;99.90
20158;DHT22;10239;56.820;24.416;2023-07-31T14:50:13;25.60;99.90
20158;DHT22;10239;56.820;24.416;2023-07-31T14:52:40;25.80;99.90
20158;DHT22;10239;56.820;24.416;2023-07-31T14:55:08;26.10;99.90
20158;DHT22;10239;56.820;24.416;2023-07-31T14:57:36;26.20;99.90
20158;DHT22;10239;56.820;24.416;2023-07-31T15:00:04;26.20;99.90
20158;DHT22;10239;56.820;24.416;2023-07-31T15:02:35;26.20;99.90
20158;DHT22;10239;56.820;24.416;2023-07-31T15:05:02;26.30;99.90
20158;DHT22;10239;56.820;24.416;2023-07-31T15:07:30;26.50;99.90
20158;DHT22;10239;56.820;24.416;2023-07-31T15:09:57;26.60;99.90
20158;DHT22;10239;56.820;24.416;2023-07-31T15:12:26;26.80;99.90
20158;DHT22;10239;56.820;24.416;2023-07-31T15:14:54;26.60;99.90
20158;DHT22;10239;56.820;24.416;2023-07-31T15:17:21;26.40;99.90
20158;DHT22;10239;56.820;24.416;2023-07-31T15:19:49;26.40;99.90
20158;DHT22;10239;56.820;24.416;2023-07-31T15:22:16;26.30;99.90
20158;DHT22;10239;56.820;24.416;2023-07-31T15:24:43;26.20;99.90
20158;DHT22;10239;56.820;24.416;2023-07-31T15:27:11;26.20;99.90
20158;DHT22;10239;56.820;24.416;2023-07-31T15:29:38;26.10;99.90
20158;DHT22;10239;56.820;24.416;2023-07-31T15:32:06;26.10;99.90
20158;DHT22;10239;56.820;24.416;2023-07-31T15:34:34;25.80;99.90
20158;DHT22;10239;56.820;24.416;2023-07-31T15:37:01;25.70;99.90
20158;DHT22;10239;56.820;24.416;2023-07-31T15:39:28;25.60;99.90
20158;DHT22;10239;56.820;24.416;2023-07-31T15:41:55;25.60;99.90
20158;DHT22;10239;56.820;24.416;2023-07-31T15:44:23;25.50;99.90
20158;DHT22;10239;56.820;24.416;2023-07-31T15:46:50;25.50;99.90
20158;DHT22;10239;56.820;24.416;2023-07-31T15:49:17;25.50;99.90